sensor_id;sensor_type;location;lat;lon;timestamp;P1;durP1;ratioP1;P2;durP2;ratioP2
29026;SDS011;16120;48.608;9.092;2023-04-24T00:00:51;76.50;;;3.77;;
29026;SDS011;16120;48.608;9.092;2023-04-24T00:04:46;75.97;;;3.60;;
29026;SDS011;16120;48.608;9.092;2023-04-24T00:08:42;77.68;;;3.95;;
29026;SDS011;16120;48.608;9.092;2023-04-24T00:12:37;77.10;;;3.90;;
29026;SDS011;16120;48.608;9.092;2023-04-24T00:16:34;75.90;;;3.60;;
29026;SDS011;16120;48.608;9.092;2023-04-24T00:20:29;76.07;;;3.60;;
29026;SDS011;16120;48.608;9.092;2023-04-24T00:24:24;75.77;;;3.80;;
29026;SDS011;16120;48.608;9.092;2023-04-24T00:28:20;76.20;;;3.67;;
29026;SDS011;16120;48.608;9.092;2023-04-24T00:32:16;76.77;;;3.73;;
29026;SDS011;16120;48.608;9.092;2023-04-24T00:36:11;74.40;;;3.60;;
29026;SDS011;16120;48.608;9.092;2023-04-24T00:40:07;75.63;;;3.60;;
29026;SDS011;16120;48.608;9.092;2023-04-24T00:44:02;78.00;;;3.50;;
29026;SDS011;16120;48.608;9.092;2023-04-24T00:47:59;75.07;;;3.60;;
29026;SDS011;16120;48.608;9.092;2023-04-24T00:51:55;77.20;;;3.83;;
29026;SDS011;16120;48.608;9.092;2023-04-24T00:55:50;75.60;;;3.60;;
29026;SDS011;16120;48.608;9.092;2023-04-24T00:59:45;75.77;;;3.73;;
29026;SDS011;16120;48.608;9.092;2023-04-24T01:03:42;75.73;;;3.50;;
29026;SDS011;16120;48.608;9.092;2023-04-24T01:07:37;75.37;;;3.70;;
29026;SDS011;16120;48.608;9.092;2023-04-24T01:11:33;76.80;;;3.80;;
29026;SDS011;16120;48.608;9.092;2023-04-24T01:15:28;77.25;;;3.47;;
29026;SDS011;16120;48.608;9.092;2023-04-24T01:19:25;75.37;;;3.43;;
29026;SDS011;16120;48.608;9.092;2023-04-24T01:23:21;77.20;;;3.40;;
29026;SDS011;16120;48.608;9.092;2023-04-24T01:27:17;76.37;;;3.70;;
29026;SDS011;16120;48.608;9.092;2023-04-24T01:31:12;75.47;;;3.70;;
29026;SDS011;16120;48.608;9.092;2023-04-24T01:35:07;76.25;;;3.70;;
29026;SDS011;16120;48.608;9.092;2023-04-24T01:39:04;75.27;;;3.23;;
29026;SDS011;16120;48.608;9.092;2023-04-24T01:42:59;76.93;;;3.47;;
29026;SDS011;16120;48.608;9.092;2023-04-24T01:46:55;80.40;;;5.53;;
29026;SDS011;16120;48.608;9.092;2023-04-24T01:50:50;76.40;;;4.40;;
29026;SDS011;16120;48.608;9.092;2023-04-24T01:54:47;80.07;;;5.57;;
29026;SDS011;16120;48.608;9.092;2023-04-24T01:58:42;76.87;;;4.07;;
29026;SDS011;16120;48.608;9.092;2023-04-24T02:02:38;77.10;;;4.03;;
29026;SDS011;16120;48.608;9.092;2023-04-24T02:06:34;78.27;;;4.23;;
29026;SDS011;16120;48.608;9.092;2023-04-24T02:10:30;76.20;;;3.90;;
29026;SDS011;16120;48.608;9.092;2023-04-24T02:14:26;77.00;;;3.60;;
29026;SDS011;16120;48.608;9.092;2023-04-24T02:18:21;75.13;;;3.30;;
29026;SDS011;16120;48.608;9.092;2023-04-24T02:22:16;81.80;;;3.60;;
29026;SDS011;16120;48.608;9.092;2023-04-24T02:26:13;76.63;;;3.93;;
29026;SDS011;16120;48.608;9.092;2023-04-24T02:30:08;75.50;;;3.77;;
29026;SDS011;16120;48.608;9.092;2023-04-24T02:34:03;78.43;;;3.97;;
29026;SDS011;16120;48.608;9.092;2023-04-24T02:37:59;74.60;;;3.93;;
29026;SDS011;16120;48.608;9.092;2023-04-24T02:41:55;75.40;;;3.50;;
29026;SDS011;16120;48.608;9.092;2023-04-24T02:45:50;75.33;;;3.50;;
29026;SDS011;16120;48.608;9.092;2023-04-24T02:49:46;75.47;;;3.70;;
29026;SDS011;16120;48.608;9.092;2023-04-24T02:53:41;75.20;;;3.47;;
29026;SDS011;16120;48.608;9.092;2023-04-24T02:57:37;79.90;;;3.73;;
29026;SDS011;16120;48.608;9.092;2023-04-24T03:01:33;75.40;;;3.70;;
29026;SDS011;16120;48.608;9.092;2023-04-24T03:05:28;75.60;;;3.70;;
29026;SDS011;16120;48.608;9.092;2023-04-24T03:09:23;74.97;;;3.60;;
29026;SDS011;16120;48.608;9.092;2023-04-24T03:13:20;79.30;;;4.00;;
29026;SDS011;16120;48.608;9.092;2023-04-24T03:17:15;75.60;;;3.40;;
29026;SDS011;16120;48.608;9.092;2023-04-24T03:21:11;75.37;;;3.63;;
29026;SDS011;16120;48.608;9.092;2023-04-24T03:25:06;75.40;;;3.60;;
29026;SDS011;16120;48.608;9.092;2023-04-24T03:29:03;75.77;;;4.10;;
29026;SDS011;16120;48.608;9.092;2023-04-24T03:32:58;75.63;;;3.73;;
29026;SDS011;16120;48.608;9.092;2023-04-24T03:36:53;75.63;;;3.47;;
29026;SDS011;16120;48.608;9.092;2023-04-24T03:40:49;82.50;;;3.60;;
29026;SDS011;16120;48.608;9.092;2023-04-24T03:44:45;75.32;;;3.60;;
29026;SDS011;16120;48.608;9.092;2023-04-24T03:48:40;77.30;;;4.30;;
29026;SDS011;16120;48.608;9.092;2023-04-24T03:52:36;77.60;;;3.67;;
29026;SDS011;16120;48.608;9.092;2023-04-24T03:56:31;75.35;;;3.60;;
29026;SDS011;16120;48.608;9.092;2023-04-24T04:00:27;80.30;;;3.80;;
29026;SDS011;16120;48.608;9.092;2023-04-24T04:04:23;76.70;;;3.57;;
29026;SDS011;16120;48.608;9.092;2023-04-24T04:08:18;77.10;;;3.63;;
29026;SDS011;16120;48.608;9.092;2023-04-24T04:12:13;77.87;;;3.60;;
29026;SDS011;16120;48.608;9.092;2023-04-24T04:16:13;77.00;;;3.90;;
29026;SDS011;16120;48.608;9.092;2023-04-24T04:20:11;85.20;;;5.50;;
29026;SDS011;16120;48.608;9.092;2023-04-24T04:24:08;77.10;;;4.50;;
29026;SDS011;16120;48.608;9.092;2023-04-24T04:28:05;76.73;;;3.73;;
29026;SDS011;16120;48.608;9.092;2023-04-24T04:32:02;75.20;;;3.47;;
29026;SDS011;16120;48.608;9.092;2023-04-24T04:35:57;74.23;;;3.20;;
29026;SDS011;16120;48.608;9.092;2023-04-24T04:39:53;75.93;;;3.33;;
29026;SDS011;16120;48.608;9.092;2023-04-24T04:43:48;75.40;;;3.30;;
29026;SDS011;16120;48.608;9.092;2023-04-24T04:47:44;75.70;;;3.30;;
29026;SDS011;16120;48.608;9.092;2023-04-24T04:51:40;83.17;;;4.57;;
29026;SDS011;16120;48.608;9.092;2023-04-24T04:55:35;77.33;;;4.00;;
29026;SDS011;16120;48.608;9.092;2023-04-24T04:59:30;75.73;;;3.70;;
29026;SDS011;16120;48.608;9.092;2023-04-24T05:03:27;76.90;;;4.20;;
29026;SDS011;16120;48.608;9.092;2023-04-24T05:07:22;77.03;;;4.00;;
29026;SDS011;16120;48.608;9.092;2023-04-24T05:11:17;79.70;;;4.70;;
29026;SDS011;16120;48.608;9.092;2023-04-24T05:15:13;75.90;;;3.67;;
29026;SDS011;16120;48.608;9.092;2023-04-24T05:19:09;75.50;;;3.60;;
29026;SDS011;16120;48.608;9.092;2023-04-24T05:23:04;79.07;;;4.27;;
29026;SDS011;16120;48.608;9.092;2023-04-24T05:26:59;82.20;;;6.60;;
29026;SDS011;16120;48.608;9.092;2023-04-24T05:30:55;79.77;;;5.70;;
29026;SDS011;16120;48.608;9.092;2023-04-24T05:34:51;79.07;;;5.53;;
29026;SDS011;16120;48.608;9.092;2023-04-24T05:38:47;82.67;;;5.20;;
29026;SDS011;16120;48.608;9.092;2023-04-24T05:42:42;79.55;;;5.10;;
29026;SDS011;16120;48.608;9.092;2023-04-24T05:46:37;78.90;;;4.53;;
29026;SDS011;16120;48.608;9.092;2023-04-24T05:50:33;78.43;;;4.07;;
29026;SDS011;16120;48.608;9.092;2023-04-24T05:54:29;76.07;;;3.63;;
29026;SDS011;16120;48.608;9.092;2023-04-24T05:58:24;75.90;;;4.10;;
29026;SDS011;16120;48.608;9.092;2023-04-24T06:02:19;77.63;;;4.60;;
29026;SDS011;16120;48.608;9.092;2023-04-24T06:06:16;76.80;;;3.80;;
29026;SDS011;16120;48.608;9.092;2023-04-24T06:10:11;76.20;;;3.70;;
29026;SDS011;16120;48.608;9.092;2023-04-24T06:14:07;81.53;;;3.90;;
29026;SDS011;16120;48.608;9.092;2023-04-24T06:18:03;77.40;;;4.40;;
29026;SDS011;16120;48.608;9.092;2023-04-24T06:21:59;82.80;;;4.60;;
29026;SDS011;16120;48.608;9.092;2023-04-24T06:25:54;75.90;;;4.17;;
29026;SDS011;16120;48.608;9.092;2023-04-24T06:29:50;76.47;;;4.20;;
29026;SDS011;16120;48.608;9.092;2023-04-24T06:33:45;83.23;;;4.70;;
29026;SDS011;16120;48.608;9.092;2023-04-24T06:37:42;77.63;;;4.60;;
29026;SDS011;16120;48.608;9.092;2023-04-24T06:41:37;78.33;;;4.40;;
29026;SDS011;16120;48.608;9.092;2023-04-24T06:45:33;76.30;;;4.20;;
29026;SDS011;16120;48.608;9.092;2023-04-24T06:49:28;78.40;;;3.83;;
29026;SDS011;16120;48.608;9.092;2023-04-24T06:53:25;74.90;;;3.60;;
29026;SDS011;16120;48.608;9.092;2023-04-24T06:57:20;75.37;;;3.60;;
29026;SDS011;16120;48.608;9.092;2023-04-24T07:01:15;76.00;;;3.73;;
29026;SDS011;16120;48.608;9.092;2023-04-24T07:05:10;74.67;;;3.50;;
29026;SDS011;16120;48.608;9.092;2023-04-24T07:09:07;75.40;;;3.67;;
29026;SDS011;16120;48.608;9.092;2023-04-24T07:13:02;76.80;;;3.80;;
29026;SDS011;16120;48.608;9.092;2023-04-24T07:16:57;77.80;;;4.77;;
29026;SDS011;16120;48.608;9.092;2023-04-24T07:20:52;76.33;;;4.50;;
29026;SDS011;16120;48.608;9.092;2023-04-24T07:24:49;76.70;;;4.20;;
29026;SDS011;16120;48.608;9.092;2023-04-24T07:28:44;80.67;;;4.83;;
29026;SDS011;16120;48.608;9.092;2023-04-24T07:32:40;77.03;;;4.63;;
29026;SDS011;16120;48.608;9.092;2023-04-24T07:36:35;78.50;;;4.57;;
29026;SDS011;16120;48.608;9.092;2023-04-24T07:40:32;76.47;;;4.27;;
29026;SDS011;16120;48.608;9.092;2023-04-24T07:44:27;78.80;;;4.23;;
29026;SDS011;16120;48.608;9.092;2023-04-24T07:48:22;76.53;;;4.23;;
29026;SDS011;16120;48.608;9.092;2023-04-24T07:52:17;76.87;;;4.00;;
29026;SDS011;16120;48.608;9.092;2023-04-24T07:56:14;74.73;;;3.40;;
29026;SDS011;16120;48.608;9.092;2023-04-24T08:00:09;74.57;;;3.57;;
29026;SDS011;16120;48.608;9.092;2023-04-24T08:04:05;76.37;;;4.03;;
29026;SDS011;16120;48.608;9.092;2023-04-24T08:08:00;74.77;;;3.87;;
29026;SDS011;16120;48.608;9.092;2023-04-24T08:11:57;75.17;;;3.87;;
29026;SDS011;16120;48.608;9.092;2023-04-24T08:15:52;76.50;;;3.53;;
29026;SDS011;16120;48.608;9.092;2023-04-24T08:19:47;85.65;;;4.35;;
29026;SDS011;16120;48.608;9.092;2023-04-24T08:23:42;80.20;;;4.53;;
29026;SDS011;16120;48.608;9.092;2023-04-24T08:27:39;76.07;;;4.30;;
29026;SDS011;16120;48.608;9.092;2023-04-24T08:31:34;74.93;;;3.77;;
29026;SDS011;16120;48.608;9.092;2023-04-24T08:35:29;76.50;;;4.53;;
29026;SDS011;16120;48.608;9.092;2023-04-24T08:39:24;76.87;;;3.90;;
29026;SDS011;16120;48.608;9.092;2023-04-24T08:43:21;78.40;;;4.97;;
29026;SDS011;16120;48.608;9.092;2023-04-24T08:47:17;75.33;;;4.17;;
29026;SDS011;16120;48.608;9.092;2023-04-24T08:51:12;75.37;;;4.33;;
29026;SDS011;16120;48.608;9.092;2023-04-24T08:55:08;75.20;;;4.20;;
29026;SDS011;16120;48.608;9.092;2023-04-24T08:59:04;75.40;;;4.13;;
29026;SDS011;16120;48.608;9.092;2023-04-24T09:03:00;74.40;;;3.90;;
29026;SDS011;16120;48.608;9.092;2023-04-24T09:06:56;76.33;;;4.53;;
29026;SDS011;16120;48.608;9.092;2023-04-24T09:10:52;77.10;;;4.10;;
29026;SDS011;16120;48.608;9.092;2023-04-24T09:14:48;79.83;;;4.30;;
29026;SDS011;16120;48.608;9.092;2023-04-24T09:18:44;78.50;;;4.83;;
29026;SDS011;16120;48.608;9.092;2023-04-24T09:22:39;74.77;;;4.60;;
29026;SDS011;16120;48.608;9.092;2023-04-24T09:26:35;75.90;;;4.15;;
29026;SDS011;16120;48.608;9.092;2023-04-24T09:30:32;77.20;;;4.37;;
29026;SDS011;16120;48.608;9.092;2023-04-24T09:34:27;73.03;;;3.70;;
29026;SDS011;16120;48.608;9.092;2023-04-24T09:38:30;73.67;;;4.03;;
29026;SDS011;16120;48.608;9.092;2023-04-24T09:42:25;75.50;;;3.80;;
29026;SDS011;16120;48.608;9.092;2023-04-24T09:46:30;74.60;;;3.90;;
29026;SDS011;16120;48.608;9.092;2023-04-24T09:50:25;78.97;;;4.90;;
29026;SDS011;16120;48.608;9.092;2023-04-24T09:54:21;76.80;;;4.67;;
29026;SDS011;16120;48.608;9.092;2023-04-24T09:58:16;77.50;;;4.80;;
29026;SDS011;16120;48.608;9.092;2023-04-24T10:02:17;75.30;;;3.65;;
29026;SDS011;16120;48.608;9.092;2023-04-24T10:06:13;74.27;;;3.87;;
29026;SDS011;16120;48.608;9.092;2023-04-24T10:10:08;74.60;;;3.80;;
29026;SDS011;16120;48.608;9.092;2023-04-24T10:14:03;80.77;;;4.10;;
29026;SDS011;16120;48.608;9.092;2023-04-24T10:18:00;72.87;;;3.20;;
29026;SDS011;16120;48.608;9.092;2023-04-24T10:21:56;74.37;;;3.43;;
29026;SDS011;16120;48.608;9.092;2023-04-24T10:25:52;76.90;;;4.23;;
29026;SDS011;16120;48.608;9.092;2023-04-24T10:29:47;73.40;;;3.40;;
29026;SDS011;16120;48.608;9.092;2023-04-24T10:33:45;74.03;;;3.20;;
29026;SDS011;16120;48.608;9.092;2023-04-24T10:37:42;77.40;;;4.40;;
29026;SDS011;16120;48.608;9.092;2023-04-24T10:41:38;74.77;;;3.60;;
29026;SDS011;16120;48.608;9.092;2023-04-24T10:45:33;74.50;;;3.70;;
29026;SDS011;16120;48.608;9.092;2023-04-24T10:49:30;75.00;;;3.60;;
29026;SDS011;16120;48.608;9.092;2023-04-24T10:53:27;75.50;;;3.80;;
29026;SDS011;16120;48.608;9.092;2023-04-24T10:57:26;74.30;;;4.03;;
29026;SDS011;16120;48.608;9.092;2023-04-24T11:01:25;73.87;;;3.73;;
29026;SDS011;16120;48.608;9.092;2023-04-24T11:05:22;74.10;;;3.90;;
29026;SDS011;16120;48.608;9.092;2023-04-24T11:09:17;75.73;;;3.70;;
29026;SDS011;16120;48.608;9.092;2023-04-24T11:13:15;74.30;;;3.60;;
29026;SDS011;16120;48.608;9.092;2023-04-24T11:17:26;74.13;;;3.87;;
29026;SDS011;16120;48.608;9.092;2023-04-24T11:21:23;74.83;;;4.00;;
29026;SDS011;16120;48.608;9.092;2023-04-24T11:25:18;75.50;;;3.90;;
29026;SDS011;16120;48.608;9.092;2023-04-24T11:29:13;74.25;;;4.18;;
29026;SDS011;16120;48.608;9.092;2023-04-24T11:33:08;77.80;;;3.90;;
29026;SDS011;16120;48.608;9.092;2023-04-24T11:37:05;75.70;;;3.53;;
29026;SDS011;16120;48.608;9.092;2023-04-24T11:41:01;74.87;;;3.80;;
29026;SDS011;16120;48.608;9.092;2023-04-24T11:44:56;75.37;;;4.10;;
29026;SDS011;16120;48.608;9.092;2023-04-24T11:48:51;75.40;;;4.40;;
29026;SDS011;16120;48.608;9.092;2023-04-24T11:52:49;78.97;;;4.47;;
29026;SDS011;16120;48.608;9.092;2023-04-24T11:56:44;75.83;;;4.03;;
29026;SDS011;16120;48.608;9.092;2023-04-24T12:00:39;74.57;;;3.90;;
29026;SDS011;16120;48.608;9.092;2023-04-24T12:04:38;73.43;;;3.70;;
29026;SDS011;16120;48.608;9.092;2023-04-24T12:08:35;76.10;;;4.40;;
29026;SDS011;16120;48.608;9.092;2023-04-24T12:12:30;75.27;;;4.30;;
29026;SDS011;16120;48.608;9.092;2023-04-24T12:16:25;74.57;;;4.07;;
29026;SDS011;16120;48.608;9.092;2023-04-24T12:20:23;73.50;;;4.10;;
29026;SDS011;16120;48.608;9.092;2023-04-24T12:24:20;73.77;;;3.80;;
29026;SDS011;16120;48.608;9.092;2023-04-24T12:28:15;75.27;;;3.87;;
29026;SDS011;16120;48.608;9.092;2023-04-24T12:32:15;73.77;;;3.70;;
29026;SDS011;16120;48.608;9.092;2023-04-24T12:36:10;74.47;;;3.97;;
29026;SDS011;16120;48.608;9.092;2023-04-24T12:40:08;75.43;;;4.20;;
29026;SDS011;16120;48.608;9.092;2023-04-24T12:44:03;75.23;;;3.90;;
29026;SDS011;16120;48.608;9.092;2023-04-24T12:48:05;75.67;;;3.53;;
29026;SDS011;16120;48.608;9.092;2023-04-24T12:52:00;75.90;;;6.20;;
29026;SDS011;16120;48.608;9.092;2023-04-24T12:55:57;76.87;;;4.47;;
29026;SDS011;16120;48.608;9.092;2023-04-24T12:59:53;75.27;;;4.17;;
29026;SDS011;16120;48.608;9.092;2023-04-24T13:03:48;75.10;;;4.00;;
29026;SDS011;16120;48.608;9.092;2023-04-24T13:07:43;74.40;;;3.90;;
29026;SDS011;16120;48.608;9.092;2023-04-24T13:11:40;75.77;;;4.73;;
29026;SDS011;16120;48.608;9.092;2023-04-24T13:15:35;74.37;;;4.17;;
29026;SDS011;16120;48.608;9.092;2023-04-24T13:19:34;74.40;;;4.07;;
29026;SDS011;16120;48.608;9.092;2023-04-24T13:23:30;78.50;;;4.43;;
29026;SDS011;16120;48.608;9.092;2023-04-24T13:27:26;75.67;;;4.10;;
29026;SDS011;16120;48.608;9.092;2023-04-24T13:31:21;75.73;;;4.20;;
29026;SDS011;16120;48.608;9.092;2023-04-24T13:35:17;73.77;;;4.07;;
29026;SDS011;16120;48.608;9.092;2023-04-24T13:39:12;75.33;;;3.80;;
29026;SDS011;16120;48.608;9.092;2023-04-24T13:43:09;73.83;;;3.77;;
29026;SDS011;16120;48.608;9.092;2023-04-24T13:47:04;74.10;;;3.60;;
29026;SDS011;16120;48.608;9.092;2023-04-24T13:50:59;73.90;;;3.80;;
29026;SDS011;16120;48.608;9.092;2023-04-24T13:54:54;73.70;;;4.07;;
29026;SDS011;16120;48.608;9.092;2023-04-24T13:58:51;73.70;;;3.73;;
29026;SDS011;16120;48.608;9.092;2023-04-24T14:02:46;77.00;;;4.40;;
29026;SDS011;16120;48.608;9.092;2023-04-24T14:06:41;75.67;;;3.80;;
29026;SDS011;16120;48.608;9.092;2023-04-24T14:10:37;73.87;;;4.10;;
29026;SDS011;16120;48.608;9.092;2023-04-24T14:14:33;74.83;;;5.33;;
29026;SDS011;16120;48.608;9.092;2023-04-24T14:18:28;78.10;;;4.00;;
29026;SDS011;16120;48.608;9.092;2023-04-24T14:22:23;74.97;;;4.10;;
29026;SDS011;16120;48.608;9.092;2023-04-24T14:26:19;77.60;;;4.73;;
29026;SDS011;16120;48.608;9.092;2023-04-24T14:30:16;75.80;;;4.50;;
29026;SDS011;16120;48.608;9.092;2023-04-24T14:34:11;74.67;;;4.00;;
29026;SDS011;16120;48.608;9.092;2023-04-24T14:38:06;75.87;;;4.30;;
29026;SDS011;16120;48.608;9.092;2023-04-24T14:42:01;80.23;;;4.73;;
29026;SDS011;16120;48.608;9.092;2023-04-24T14:45:58;75.87;;;4.40;;
29026;SDS011;16120;48.608;9.092;2023-04-24T14:49:53;75.00;;;3.97;;
29026;SDS011;16120;48.608;9.092;2023-04-24T14:53:48;74.28;;;3.90;;
29026;SDS011;16120;48.608;9.092;2023-04-24T14:57:43;74.67;;;3.80;;
29026;SDS011;16120;48.608;9.092;2023-04-24T15:01:40;75.20;;;3.85;;
29026;SDS011;16120;48.608;9.092;2023-04-24T15:05:35;76.30;;;3.90;;
29026;SDS011;16120;48.608;9.092;2023-04-24T15:09:30;75.50;;;4.50;;
29026;SDS011;16120;48.608;9.092;2023-04-24T15:13:26;74.43;;;4.00;;
29026;SDS011;16120;48.608;9.092;2023-04-24T15:17:22;77.60;;;4.23;;
29026;SDS011;16120;48.608;9.092;2023-04-24T15:21:17;75.60;;;4.50;;
29026;SDS011;16120;48.608;9.092;2023-04-24T15:25:12;75.47;;;4.17;;
29026;SDS011;16120;48.608;9.092;2023-04-24T15:29:08;76.97;;;4.27;;
29026;SDS011;16120;48.608;9.092;2023-04-24T15:33:04;76.17;;;4.10;;
29026;SDS011;16120;48.608;9.092;2023-04-24T15:37:00;75.97;;;4.30;;
29026;SDS011;16120;48.608;9.092;2023-04-24T15:40:55;73.30;;;3.80;;
29026;SDS011;16120;48.608;9.092;2023-04-24T15:44:50;74.50;;;4.35;;
29026;SDS011;16120;48.608;9.092;2023-04-24T15:48:47;75.83;;;3.97;;
29026;SDS011;16120;48.608;9.092;2023-04-24T15:52:42;76.50;;;4.50;;
29026;SDS011;16120;48.608;9.092;2023-04-24T15:56:38;73.90;;;4.10;;
29026;SDS011;16120;48.608;9.092;2023-04-24T16:00:33;77.90;;;4.20;;
29026;SDS011;16120;48.608;9.092;2023-04-24T16:04:29;76.20;;;4.00;;
29026;SDS011;16120;48.608;9.092;2023-04-24T16:08:24;75.80;;;4.73;;
29026;SDS011;16120;48.608;9.092;2023-04-24T16:12:20;74.00;;;3.67;;
29026;SDS011;16120;48.608;9.092;2023-04-24T16:16:15;73.60;;;4.20;;
29026;SDS011;16120;48.608;9.092;2023-04-24T16:20:12;74.00;;;3.77;;
29026;SDS011;16120;48.608;9.092;2023-04-24T16:24:07;73.70;;;3.80;;
29026;SDS011;16120;48.608;9.092;2023-04-24T16:28:02;76.43;;;4.00;;
29026;SDS011;16120;48.608;9.092;2023-04-24T16:31:58;74.93;;;4.00;;
29026;SDS011;16120;48.608;9.092;2023-04-24T16:35:54;74.27;;;3.90;;
29026;SDS011;16120;48.608;9.092;2023-04-24T16:39:49;74.00;;;4.00;;
29026;SDS011;16120;48.608;9.092;2023-04-24T16:43:45;72.73;;;3.50;;
29026;SDS011;16120;48.608;9.092;2023-04-24T16:47:40;72.70;;;3.73;;
29026;SDS011;16120;48.608;9.092;2023-04-24T16:51:36;72.73;;;3.60;;
29026;SDS011;16120;48.608;9.092;2023-04-24T16:55:31;73.47;;;3.47;;
29026;SDS011;16120;48.608;9.092;2023-04-24T16:59:27;77.10;;;3.57;;
29026;SDS011;16120;48.608;9.092;2023-04-24T17:03:22;74.50;;;4.07;;
29026;SDS011;16120;48.608;9.092;2023-04-24T17:07:19;75.23;;;4.53;;
29026;SDS011;16120;48.608;9.092;2023-04-24T17:11:14;78.07;;;5.37;;
29026;SDS011;16120;48.608;9.092;2023-04-24T17:15:10;76.60;;;4.60;;
29026;SDS011;16120;48.608;9.092;2023-04-24T17:19:05;75.73;;;4.43;;
29026;SDS011;16120;48.608;9.092;2023-04-24T17:23:03;74.40;;;4.03;;
29026;SDS011;16120;48.608;9.092;2023-04-24T17:26:58;75.17;;;4.00;;
29026;SDS011;16120;48.608;9.092;2023-04-24T17:30:53;72.47;;;3.40;;
29026;SDS011;16120;48.608;9.092;2023-04-24T17:34:49;74.60;;;3.90;;
29026;SDS011;16120;48.608;9.092;2023-04-24T17:38:45;74.97;;;3.97;;
29026;SDS011;16120;48.608;9.092;2023-04-24T17:42:40;73.60;;;4.00;;
29026;SDS011;16120;48.608;9.092;2023-04-24T17:46:36;74.17;;;4.10;;
29026;SDS011;16120;48.608;9.092;2023-04-24T17:50:31;74.83;;;4.10;;
29026;SDS011;16120;48.608;9.092;2023-04-24T17:54:28;73.80;;;4.25;;
29026;SDS011;16120;48.608;9.092;2023-04-24T17:58:23;75.17;;;4.10;;
29026;SDS011;16120;48.608;9.092;2023-04-24T18:02:18;74.20;;;4.00;;
29026;SDS011;16120;48.608;9.092;2023-04-24T18:06:13;73.88;;;4.10;;
29026;SDS011;16120;48.608;9.092;2023-04-24T18:10:10;75.17;;;3.80;;
29026;SDS011;16120;48.608;9.092;2023-04-24T18:14:05;76.70;;;5.17;;
29026;SDS011;16120;48.608;9.092;2023-04-24T18:18:01;75.90;;;4.77;;
29026;SDS011;16120;48.608;9.092;2023-04-24T18:21:56;76.80;;;4.50;;
29026;SDS011;16120;48.608;9.092;2023-04-24T18:25:54;76.00;;;4.03;;
29026;SDS011;16120;48.608;9.092;2023-04-24T18:29:49;74.37;;;4.30;;
29026;SDS011;16120;48.608;9.092;2023-04-24T18:33:44;74.90;;;4.20;;
29026;SDS011;16120;48.608;9.092;2023-04-24T18:37:40;79.97;;;4.40;;
29026;SDS011;16120;48.608;9.092;2023-04-24T18:41:36;75.33;;;4.30;;
29026;SDS011;16120;48.608;9.092;2023-04-24T18:45:32;73.77;;;3.80;;
29026;SDS011;16120;48.608;9.092;2023-04-24T18:49:27;73.67;;;4.10;;
29026;SDS011;16120;48.608;9.092;2023-04-24T18:53:22;74.37;;;3.70;;
29026;SDS011;16120;48.608;9.092;2023-04-24T18:57:19;74.50;;;3.77;;
29026;SDS011;16120;48.608;9.092;2023-04-24T19:01:14;73.30;;;3.30;;
29026;SDS011;16120;48.608;9.092;2023-04-24T19:05:09;73.60;;;3.60;;
29026;SDS011;16120;48.608;9.092;2023-04-24T19:09:05;74.57;;;3.83;;
29026;SDS011;16120;48.608;9.092;2023-04-24T19:13:01;74.67;;;3.70;;
29026;SDS011;16120;48.608;9.092;2023-04-24T19:16:57;75.20;;;4.13;;
29026;SDS011;16120;48.608;9.092;2023-04-24T19:20:52;75.50;;;3.83;;
29026;SDS011;16120;48.608;9.092;2023-04-24T19:24:47;74.20;;;3.43;;
29026;SDS011;16120;48.608;9.092;2023-04-24T19:28:44;75.10;;;3.80;;
29026;SDS011;16120;48.608;9.092;2023-04-24T19:32:39;75.87;;;3.57;;
29026;SDS011;16120;48.608;9.092;2023-04-24T19:36:34;76.27;;;3.90;;
29026;SDS011;16120;48.608;9.092;2023-04-24T19:40:29;76.37;;;4.00;;
29026;SDS011;16120;48.608;9.092;2023-04-24T19:44:26;74.87;;;3.70;;
29026;SDS011;16120;48.608;9.092;2023-04-24T19:48:21;76.00;;;3.70;;
29026;SDS011;16120;48.608;9.092;2023-04-24T19:52:16;75.07;;;4.10;;
29026;SDS011;16120;48.608;9.092;2023-04-24T19:56:11;74.67;;;3.70;;
29026;SDS011;16120;48.608;9.092;2023-04-24T20:00:09;75.00;;;4.10;;
29026;SDS011;16120;48.608;9.092;2023-04-24T20:04:04;74.90;;;3.87;;
29026;SDS011;16120;48.608;9.092;2023-04-24T20:07:59;76.50;;;4.23;;
29026;SDS011;16120;48.608;9.092;2023-04-24T20:11:54;74.97;;;3.97;;
29026;SDS011;16120;48.608;9.092;2023-04-24T20:15:51;74.17;;;3.90;;
29026;SDS011;16120;48.608;9.092;2023-04-24T20:19:46;77.30;;;4.37;;
29026;SDS011;16120;48.608;9.092;2023-04-24T20:23:41;78.30;;;5.00;;
29026;SDS011;16120;48.608;9.092;2023-04-24T20:27:37;78.60;;;5.13;;
29026;SDS011;16120;48.608;9.092;2023-04-24T20:31:33;76.97;;;4.60;;
29026;SDS011;16120;48.608;9.092;2023-04-24T20:35:28;75.50;;;4.60;;
29026;SDS011;16120;48.608;9.092;2023-04-24T20:39:24;75.60;;;4.60;;
29026;SDS011;16120;48.608;9.092;2023-04-24T20:43:19;76.40;;;4.37;;
29026;SDS011;16120;48.608;9.092;2023-04-24T20:47:16;78.40;;;4.60;;
29026;SDS011;16120;48.608;9.092;2023-04-24T20:51:11;76.20;;;4.87;;
29026;SDS011;16120;48.608;9.092;2023-04-24T20:55:07;75.20;;;4.10;;
29026;SDS011;16120;48.608;9.092;2023-04-24T20:59:02;76.40;;;4.50;;
29026;SDS011;16120;48.608;9.092;2023-04-24T21:02:59;75.90;;;4.60;;
29026;SDS011;16120;48.608;9.092;2023-04-24T21:06:54;76.37;;;4.80;;
29026;SDS011;16120;48.608;9.092;2023-04-24T21:10:49;79.00;;;5.10;;
29026;SDS011;16120;48.608;9.092;2023-04-24T21:14:45;76.90;;;4.60;;
29026;SDS011;16120;48.608;9.092;2023-04-24T21:18:41;77.13;;;5.00;;
29026;SDS011;16120;48.608;9.092;2023-04-24T21:22:36;75.47;;;4.70;;
29026;SDS011;16120;48.608;9.092;2023-04-24T21:26:32;78.20;;;5.50;;
29026;SDS011;16120;48.608;9.092;2023-04-24T21:30:27;81.60;;;5.80;;
29026;SDS011;16120;48.608;9.092;2023-04-24T21:34:23;77.87;;;5.03;;
29026;SDS011;16120;48.608;9.092;2023-04-24T21:38:19;79.20;;;4.60;;
29026;SDS011;16120;48.608;9.092;2023-04-24T21:42:14;76.50;;;4.50;;
29026;SDS011;16120;48.608;9.092;2023-04-24T21:46:09;79.63;;;4.30;;
29026;SDS011;16120;48.608;9.092;2023-04-24T21:50:06;76.47;;;4.50;;
29026;SDS011;16120;48.608;9.092;2023-04-24T21:54:02;78.97;;;5.10;;
29026;SDS011;16120;48.608;9.092;2023-04-24T21:57:57;76.97;;;4.70;;
29026;SDS011;16120;48.608;9.092;2023-04-24T22:02:18;80.97;;;5.00;;
29026;SDS011;16120;48.608;9.092;2023-04-24T22:06:14;78.90;;;6.27;;
29026;SDS011;16120;48.608;9.092;2023-04-24T22:10:10;77.37;;;4.90;;
29026;SDS011;16120;48.608;9.092;2023-04-24T22:14:06;79.97;;;5.17;;
29026;SDS011;16120;48.608;9.092;2023-04-24T22:18:01;79.17;;;5.17;;
29026;SDS011;16120;48.608;9.092;2023-04-24T22:21:57;79.10;;;5.17;;
29026;SDS011;16120;48.608;9.092;2023-04-24T22:25:53;77.70;;;5.40;;
29026;SDS011;16120;48.608;9.092;2023-04-24T22:29:48;84.70;;;7.20;;
29026;SDS011;16120;48.608;9.092;2023-04-24T22:33:43;81.70;;;7.00;;
29026;SDS011;16120;48.608;9.092;2023-04-24T22:37:40;80.77;;;5.70;;
29026;SDS011;16120;48.608;9.092;2023-04-24T22:41:35;78.57;;;5.80;;
29026;SDS011;16120;48.608;9.092;2023-04-24T22:45:30;80.27;;;5.00;;
29026;SDS011;16120;48.608;9.092;2023-04-24T22:49:25;82.17;;;5.33;;
29026;SDS011;16120;48.608;9.092;2023-04-24T22:53:22;78.40;;;5.30;;
29026;SDS011;16120;48.608;9.092;2023-04-24T22:57:17;76.60;;;5.00;;
29026;SDS011;16120;48.608;9.092;2023-04-24T23:01:12;78.47;;;5.53;;
29026;SDS011;16120;48.608;9.092;2023-04-24T23:05:08;79.20;;;5.70;;
29026;SDS011;16120;48.608;9.092;2023-04-24T23:09:04;78.67;;;5.50;;
29026;SDS011;16120;48.608;9.092;2023-04-24T23:12:59;78.30;;;5.30;;
29026;SDS011;16120;48.608;9.092;2023-04-24T23:16:55;76.37;;;4.67;;